sensor_id;sensor_type;location;lat;lon;timestamp;pressure;altitude;pressure_sealevel;temperature;humidity
22580;BME280;11456;47.030;15.396;2023-02-23T00:01:09;97246.03;;;3.85;92.36
22580;BME280;11456;47.030;15.396;2023-02-23T00:03:36;97241.69;;;3.95;92.32
22580;BME280;11456;47.030;15.396;2023-02-23T00:06:02;97245.44;;;3.82;92.54
22580;BME280;11456;47.030;15.396;2023-02-23T00:08:29;97250.63;;;3.72;92.97
22580;BME280;11456;47.030;15.396;2023-02-23T00:10:57;97238.78;;;3.87;93.30
22580;BME280;11456;47.030;15.396;2023-02-23T00:13:25;97239.75;;;3.97;92.61
22580;BME280;11456;47.030;15.396;2023-02-23T00:15:52;97237.81;;;3.99;92.76
22580;BME280;11456;47.030;15.396;2023-02-23T00:18:18;97232.88;;;3.84;92.87
22580;BME280;11456;47.030;15.396;2023-02-23T00:20:53;97241.44;;;3.98;92.54
22580;BME280;11456;47.030;15.396;2023-02-23T00:23:23;97246.31;;;3.82;92.99
22580;BME280;11456;47.030;15.396;2023-02-23T00:25:49;97234.19;;;4.00;93.08
22580;BME280;11456;47.030;15.396;2023-02-23T00:28:16;97238.06;;;3.96;92.09
22580;BME280;11456;47.030;15.396;2023-02-23T00:30:42;97243.63;;;4.04;92.06
22580;BME280;11456;47.030;15.396;2023-02-23T00:33:11;97241.56;;;3.97;91.69
22580;BME280;11456;47.030;15.396;2023-02-23T00:35:39;97234.28;;;3.99;91.85
22580;BME280;11456;47.030;15.396;2023-02-23T00:38:05;97235.03;;;3.90;91.50
22580;BME280;11456;47.030;15.396;2023-02-23T00:40:32;97231.16;;;3.83;91.56
22580;BME280;11456;47.030;15.396;2023-02-23T00:42:58;97234.91;;;3.91;91.29
22580;BME280;11456;47.030;15.396;2023-02-23T00:45:25;97238.78;;;3.87;91.54
22580;BME280;11456;47.030;15.396;2023-02-23T00:47:52;97236.13;;;3.87;91.48
22580;BME280;11456;47.030;15.396;2023-02-23T00:50:18;97234.03;;;3.91;90.93
22580;BME280;11456;47.030;15.396;2023-02-23T00:52:44;97239.50;;;3.78;91.26
22580;BME280;11456;47.030;15.396;2023-02-23T00:55:12;97244.13;;;3.76;91.29
22580;BME280;11456;47.030;15.396;2023-02-23T00:57:38;97239.03;;;3.73;91.83
22580;BME280;11456;47.030;15.396;2023-02-23T01:00:06;97242.66;;;3.83;91.20
22580;BME280;11456;47.030;15.396;2023-02-23T01:02:45;97250.41;;;3.75;91.95
22580;BME280;11456;47.030;15.396;2023-02-23T01:05:12;97246.63;;;3.67;91.43
22580;BME280;11456;47.030;15.396;2023-02-23T01:07:39;97252.53;;;3.48;91.78
22580;BME280;11456;47.030;15.396;2023-02-23T01:10:06;97247.00;;;3.51;92.14
22580;BME280;11456;47.030;15.396;2023-02-23T01:12:49;97254.63;;;3.55;93.04
22580;BME280;11456;47.030;15.396;2023-02-23T01:15:16;97245.91;;;3.53;92.15
22580;BME280;11456;47.030;15.396;2023-02-23T01:17:43;97249.16;;;3.46;91.96
22580;BME280;11456;47.030;15.396;2023-02-23T01:20:10;97253.97;;;3.30;91.79
22580;BME280;11456;47.030;15.396;2023-02-23T01:22:46;97256.41;;;3.44;91.96
22580;BME280;11456;47.030;15.396;2023-02-23T01:25:13;97255.94;;;3.39;91.78
22580;BME280;11456;47.030;15.396;2023-02-23T01:27:40;97250.34;;;3.31;90.96
22580;BME280;11456;47.030;15.396;2023-02-23T01:30:08;97256.59;;;3.18;91.96
22580;BME280;11456;47.030;15.396;2023-02-23T01:32:36;97248.44;;;2.98;92.15
22580;BME280;11456;47.030;15.396;2023-02-23T01:35:06;97249.16;;;3.00;93.63
22580;BME280;11456;47.030;15.396;2023-02-23T01:37:34;97249.28;;;2.98;94.29
22580;BME280;11456;47.030;15.396;2023-02-23T01:40:01;97246.44;;;3.12;93.58
22580;BME280;11456;47.030;15.396;2023-02-23T01:42:38;97244.44;;;2.92;92.86
22580;BME280;11456;47.030;15.396;2023-02-23T01:45:25;97243.50;;;3.04;93.27
22580;BME280;11456;47.030;15.396;2023-02-23T01:47:54;97248.81;;;3.04;92.76
22580;BME280;11456;47.030;15.396;2023-02-23T01:50:23;97243.25;;;3.07;92.54
22580;BME280;11456;47.030;15.396;2023-02-23T01:52:51;97242.16;;;2.99;92.96
22580;BME280;11456;47.030;15.396;2023-02-23T01:55:18;97244.25;;;3.17;93.71
22580;BME280;11456;47.030;15.396;2023-02-23T01:57:51;97239.41;;;3.11;92.36
22580;BME280;11456;47.030;15.396;2023-02-23T02:00:19;97236.34;;;2.94;91.95
22580;BME280;11456;47.030;15.396;2023-02-23T02:02:46;97233.97;;;2.78;92.84
22580;BME280;11456;47.030;15.396;2023-02-23T02:05:14;97231.69;;;2.85;92.96
22580;BME280;11456;47.030;15.396;2023-02-23T02:07:48;97235.69;;;2.90;93.33
22580;BME280;11456;47.030;15.396;2023-02-23T02:10:17;97237.25;;;2.81;92.94
22580;BME280;11456;47.030;15.396;2023-02-23T02:13:03;97238.63;;;2.98;93.25
22580;BME280;11456;47.030;15.396;2023-02-23T02:15:32;97242.25;;;2.97;93.11
22580;BME280;11456;47.030;15.396;2023-02-23T02:28:29;97226.00;;;2.78;92.02
22580;BME280;11456;47.030;15.396;2023-02-23T02:36:21;97234.72;;;2.80;93.09
22580;BME280;11456;47.030;15.396;2023-02-23T02:41:33;97233.47;;;2.73;93.81
22580;BME280;11456;47.030;15.396;2023-02-23T02:46:36;97232.91;;;2.57;93.71
22580;BME280;11456;47.030;15.396;2023-02-23T02:49:10;97230.19;;;2.46;93.33
22580;BME280;11456;47.030;15.396;2023-02-23T02:51:50;97231.50;;;2.40;94.37
22580;BME280;11456;47.030;15.396;2023-02-23T02:54:38;97225.44;;;2.38;95.49
22580;BME280;11456;47.030;15.396;2023-02-23T02:57:06;97223.34;;;2.54;95.53
22580;BME280;11456;47.030;15.396;2023-02-23T02:59:42;97223.75;;;2.61;95.50
22580;BME280;11456;47.030;15.396;2023-02-23T03:02:28;97226.72;;;2.56;95.08
22580;BME280;11456;47.030;15.396;2023-02-23T03:05:17;97230.19;;;2.46;94.63
22580;BME280;11456;47.030;15.396;2023-02-23T03:08:21;97231.22;;;2.56;95.66
22580;BME280;11456;47.030;15.396;2023-02-23T03:11:13;97237.94;;;2.49;95.43
22580;BME280;11456;47.030;15.396;2023-02-23T03:19:37;97241.22;;;2.52;95.91
22580;BME280;11456;47.030;15.396;2023-02-23T03:22:39;97232.03;;;2.56;96.50
22580;BME280;11456;47.030;15.396;2023-02-23T03:25:31;97233.44;;;2.62;96.03
22580;BME280;11456;47.030;15.396;2023-02-23T03:28:20;97232.16;;;2.78;95.95
22580;BME280;11456;47.030;15.396;2023-02-23T03:36:46;97248.00;;;2.56;93.85
22580;BME280;11456;47.030;15.396;2023-02-23T03:39:33;97246.41;;;2.30;94.69
22580;BME280;11456;47.030;15.396;2023-02-23T03:42:23;97251.69;;;2.42;94.64
22580;BME280;11456;47.030;15.396;2023-02-23T03:45:11;97249.59;;;2.35;94.67
22580;BME280;11456;47.030;15.396;2023-02-23T03:47:59;97252.84;;;2.15;95.47
22580;BME280;11456;47.030;15.396;2023-02-23T03:50:48;97248.22;;;2.29;95.58
22580;BME280;11456;47.030;15.396;2023-02-23T03:53:40;97254.91;;;2.35;95.40
22580;BME280;11456;47.030;15.396;2023-02-23T03:56:27;97250.59;;;2.21;96.86
22580;BME280;11456;47.030;15.396;2023-02-23T03:59:12;97257.66;;;2.33;96.45
22580;BME280;11456;47.030;15.396;2023-02-23T04:02:00;97257.09;;;2.17;96.21
22580;BME280;11456;47.030;15.396;2023-02-23T04:04:46;97260.25;;;2.22;95.95
22580;BME280;11456;47.030;15.396;2023-02-23T04:07:32;97247.97;;;2.32;96.28
22580;BME280;11456;47.030;15.396;2023-02-23T04:10:18;97251.97;;;2.14;95.57
22580;BME280;11456;47.030;15.396;2023-02-23T04:13:10;97250.72;;;2.07;96.23
22580;BME280;11456;47.030;15.396;2023-02-23T04:15:46;97250.50;;;2.10;95.74
22580;BME280;11456;47.030;15.396;2023-02-23T04:18:21;97251.41;;;1.98;96.14
22580;BME280;11456;47.030;15.396;2023-02-23T04:20:49;97245.31;;;2.09;96.20
22580;BME280;11456;47.030;15.396;2023-02-23T04:23:15;97248.78;;;2.22;96.24
22580;BME280;11456;47.030;15.396;2023-02-23T04:25:43;97243.25;;;2.12;95.89
22580;BME280;11456;47.030;15.396;2023-02-23T04:28:09;97255.38;;;2.16;96.36
22580;BME280;11456;47.030;15.396;2023-02-23T04:30:36;97257.09;;;2.17;96.84
22580;BME280;11456;47.030;15.396;2023-02-23T04:33:02;97256.84;;;2.20;97.04
22580;BME280;11456;47.030;15.396;2023-02-23T04:35:29;97264.38;;;2.26;97.88
22580;BME280;11456;47.030;15.396;2023-02-23T04:37:57;97262.78;;;2.36;98.03
22580;BME280;11456;47.030;15.396;2023-02-23T04:40:24;97263.13;;;2.56;96.83
22580;BME280;11456;47.030;15.396;2023-02-23T04:42:51;97258.66;;;2.43;97.16
22580;BME280;11456;47.030;15.396;2023-02-23T04:45:18;97264.56;;;2.60;97.00
22580;BME280;11456;47.030;15.396;2023-02-23T04:47:44;97257.44;;;2.36;96.43
22580;BME280;11456;47.030;15.396;2023-02-23T04:50:11;97265.88;;;2.30;96.30
22580;BME280;11456;47.030;15.396;2023-02-23T04:52:38;97258.75;;;2.18;96.77
22580;BME280;11456;47.030;15.396;2023-02-23T04:55:05;97263.63;;;2.24;97.46
22580;BME280;11456;47.030;15.396;2023-02-23T04:57:33;97267.19;;;2.49;97.08
22580;BME280;11456;47.030;15.396;2023-02-23T04:59:59;97267.25;;;2.60;97.32
22580;BME280;11456;47.030;15.396;2023-02-23T05:02:26;97263.31;;;2.53;97.23
22580;BME280;11456;47.030;15.396;2023-02-23T05:04:52;97260.16;;;2.48;97.53
22580;BME280;11456;47.030;15.396;2023-02-23T05:07:19;97266.88;;;2.04;98.44
22580;BME280;11456;47.030;15.396;2023-02-23T05:09:45;97267.38;;;2.46;98.56
22580;BME280;11456;47.030;15.396;2023-02-23T05:12:12;97268.59;;;2.41;97.44
22580;BME280;11456;47.030;15.396;2023-02-23T05:14:40;97264.22;;;2.40;97.63
22580;BME280;11456;47.030;15.396;2023-02-23T05:17:07;97267.28;;;2.23;96.20
22580;BME280;11456;47.030;15.396;2023-02-23T05:19:34;97275.81;;;2.03;96.80
22580;BME280;11456;47.030;15.396;2023-02-23T05:22:00;97268.16;;;2.11;97.23
22580;BME280;11456;47.030;15.396;2023-02-23T05:24:27;97265.91;;;2.05;97.46
22580;BME280;11456;47.030;15.396;2023-02-23T05:26:53;97278.19;;;2.19;96.81
22580;BME280;11456;47.030;15.396;2023-02-23T05:29:20;97271.66;;;1.99;97.82
22580;BME280;11456;47.030;15.396;2023-02-23T05:31:46;97278.66;;;2.00;97.69
22580;BME280;11456;47.030;15.396;2023-02-23T05:34:14;97272.59;;;2.23;97.58
22580;BME280;11456;47.030;15.396;2023-02-23T05:36:42;97274.16;;;2.26;96.65
22580;BME280;11456;47.030;15.396;2023-02-23T05:39:08;97280.69;;;2.09;95.73
22580;BME280;11456;47.030;15.396;2023-02-23T05:41:35;97275.81;;;2.03;95.58
22580;BME280;11456;47.030;15.396;2023-02-23T05:44:01;97276.66;;;2.04;96.02
22580;BME280;11456;47.030;15.396;2023-02-23T05:46:28;97278.03;;;2.09;96.27
22580;BME280;11456;47.030;15.396;2023-02-23T05:48:56;97285.75;;;2.12;96.60
22580;BME280;11456;47.030;15.396;2023-02-23T05:51:24;97276.66;;;2.04;96.31
22580;BME280;11456;47.030;15.396;2023-02-23T05:53:51;97285.53;;;2.28;96.63
22580;BME280;11456;47.030;15.396;2023-02-23T05:56:17;97283.41;;;2.20;95.22
22580;BME280;11456;47.030;15.396;2023-02-23T05:58:46;97293.66;;;2.01;96.17
22580;BME280;11456;47.030;15.396;2023-02-23T06:01:13;97285.16;;;1.96;96.99
22580;BME280;11456;47.030;15.396;2023-02-23T06:03:40;97283.25;;;2.11;96.55
22580;BME280;11456;47.030;15.396;2023-02-23T06:06:07;97285.34;;;2.06;96.97
22580;BME280;11456;47.030;15.396;2023-02-23T06:08:33;97283.66;;;2.17;96.74
22580;BME280;11456;47.030;15.396;2023-02-23T06:11:00;97279.41;;;2.02;96.89
22580;BME280;11456;47.030;15.396;2023-02-23T06:13:26;97277.94;;;2.11;97.76
22580;BME280;11456;47.030;15.396;2023-02-23T06:15:53;97287.13;;;2.30;98.24
22580;BME280;11456;47.030;15.396;2023-02-23T06:18:20;97289.53;;;2.33;98.90
22580;BME280;11456;47.030;15.396;2023-02-23T06:20:47;97295.22;;;2.53;98.13
22580;BME280;11456;47.030;15.396;2023-02-23T06:23:14;97299.78;;;2.87;98.25
22580;BME280;11456;47.030;15.396;2023-02-23T06:25:44;97296.81;;;3.38;99.17
22580;BME280;11456;47.030;15.396;2023-02-23T06:28:11;97305.50;;;3.40;96.27
22580;BME280;11456;47.030;15.396;2023-02-23T06:30:38;97315.53;;;3.25;95.42
22580;BME280;11456;47.030;15.396;2023-02-23T06:33:05;97321.34;;;3.30;95.48
22580;BME280;11456;47.030;15.396;2023-02-23T06:35:32;97324.81;;;3.19;97.48
22580;BME280;11456;47.030;15.396;2023-02-23T06:37:59;97325.66;;;3.55;97.15
22580;BME280;11456;47.030;15.396;2023-02-23T06:40:26;97330.03;;;3.56;97.37
22580;BME280;11456;47.030;15.396;2023-02-23T06:42:52;97334.19;;;3.71;98.45
22580;BME280;11456;47.030;15.396;2023-02-23T06:45:19;97342.31;;;3.92;97.94
22580;BME280;11456;47.030;15.396;2023-02-23T06:47:46;97354.56;;;3.94;98.42
22580;BME280;11456;47.030;15.396;2023-02-23T06:50:13;97357.16;;;3.72;99.90
22580;BME280;11456;47.030;15.396;2023-02-23T06:52:40;97357.84;;;3.52;100.00
22580;BME280;11456;47.030;15.396;2023-02-23T06:55:07;97357.09;;;3.50;100.00
22580;BME280;11456;47.030;15.396;2023-02-23T06:57:34;97367.66;;;3.28;100.00
22580;BME280;11456;47.030;15.396;2023-02-23T07:00:00;97366.44;;;3.55;100.00
22580;BME280;11456;47.030;15.396;2023-02-23T07:02:27;97365.75;;;3.65;100.00
22580;BME280;11456;47.030;15.396;2023-02-23T07:04:54;97369.56;;;3.95;100.00
22580;BME280;11456;47.030;15.396;2023-02-23T07:07:20;97362.56;;;4.06;100.00
22580;BME280;11456;47.030;15.396;2023-02-23T07:09:47;97370.31;;;4.20;99.84
22580;BME280;11456;47.030;15.396;2023-02-23T07:12:13;97375.41;;;4.23;98.71
22580;BME280;11456;47.030;15.396;2023-02-23T07:14:40;97370.31;;;4.31;98.44
22580;BME280;11456;47.030;15.396;2023-02-23T07:17:06;97375.16;;;4.37;97.77
22580;BME280;11456;47.030;15.396;2023-02-23T07:19:33;97371.31;;;4.41;97.37
22580;BME280;11456;47.030;15.396;2023-02-23T07:22:00;97388.50;;;4.48;97.70
22580;BME280;11456;47.030;15.396;2023-02-23T07:24:26;97376.63;;;4.63;97.04
22580;BME280;11456;47.030;15.396;2023-02-23T07:26:53;97373.94;;;4.74;97.02
22580;BME280;11456;47.030;15.396;2023-02-23T07:29:20;97379.47;;;4.94;96.44
22580;BME280;11456;47.030;15.396;2023-02-23T07:31:49;97379.22;;;5.08;95.58
22580;BME280;11456;47.030;15.396;2023-02-23T07:34:15;97375.06;;;5.15;95.94
22580;BME280;11456;47.030;15.396;2023-02-23T07:36:42;97377.25;;;5.21;95.67
22580;BME280;11456;47.030;15.396;2023-02-23T07:39:08;97378.69;;;5.25;95.85
22580;BME280;11456;47.030;15.396;2023-02-23T07:41:35;97387.88;;;5.43;95.58
22580;BME280;11456;47.030;15.396;2023-02-23T07:44:01;97388.78;;;5.53;94.94
22580;BME280;11456;47.030;15.396;2023-02-23T07:46:28;97397.41;;;5.46;94.56
22580;BME280;11456;47.030;15.396;2023-02-23T07:48:54;97391.97;;;5.47;94.66
22580;BME280;11456;47.030;15.396;2023-02-23T07:51:21;97390.31;;;5.67;95.18
22580;BME280;11456;47.030;15.396;2023-02-23T07:53:48;97403.72;;;5.88;95.63
22580;BME280;11456;47.030;15.396;2023-02-23T07:56:14;97402.06;;;5.96;94.02
22580;BME280;11456;47.030;15.396;2023-02-23T07:58:41;97399.59;;;6.04;93.76
22580;BME280;11456;47.030;15.396;2023-02-23T08:01:09;97398.25;;;6.10;93.52
22580;BME280;11456;47.030;15.396;2023-02-23T08:03:35;97400.59;;;6.24;94.01
22580;BME280;11456;47.030;15.396;2023-02-23T08:06:02;97390.25;;;6.40;93.30
22580;BME280;11456;47.030;15.396;2023-02-23T08:08:29;97396.75;;;6.48;94.78
22580;BME280;11456;47.030;15.396;2023-02-23T08:11:02;97391.19;;;6.60;92.52
22580;BME280;11456;47.030;15.396;2023-02-23T08:13:29;97389.84;;;6.75;92.14
22580;BME280;11456;47.030;15.396;2023-02-23T08:15:56;97391.03;;;6.92;92.56
22580;BME280;11456;47.030;15.396;2023-02-23T08:18:23;97390.97;;;7.22;92.09
22580;BME280;11456;47.030;15.396;2023-02-23T08:20:50;97381.50;;;7.18;90.72
22580;BME280;11456;47.030;15.396;2023-02-23T08:23:22;97380.97;;;7.24;91.24
22580;BME280;11456;47.030;15.396;2023-02-23T08:25:48;97383.25;;;7.39;90.20
22580;BME280;11456;47.030;15.396;2023-02-23T08:28:15;97377.91;;;7.58;89.85
22580;BME280;11456;47.030;15.396;2023-02-23T08:30:41;97379.59;;;7.97;87.60
22580;BME280;11456;47.030;15.396;2023-02-23T08:33:08;97372.25;;;7.99;86.40
22580;BME280;11456;47.030;15.396;2023-02-23T08:35:35;97374.75;;;8.01;87.60
22580;BME280;11456;47.030;15.396;2023-02-23T08:38:01;97371.91;;;8.22;86.16
22580;BME280;11456;47.030;15.396;2023-02-23T08:40:28;97374.19;;;8.17;86.21
22580;BME280;11456;47.030;15.396;2023-02-23T08:42:54;97374.31;;;8.44;85.65
22580;BME280;11456;47.030;15.396;2023-02-23T08:45:20;97371.31;;;8.47;84.41
22580;BME280;11456;47.030;15.396;2023-02-23T08:47:47;97367.34;;;8.51;86.92
22580;BME280;11456;47.030;15.396;2023-02-23T08:50:13;97367.38;;;8.41;84.76
22580;BME280;11456;47.030;15.396;2023-02-23T08:52:40;97374.84;;;8.48;82.99
22580;BME280;11456;47.030;15.396;2023-02-23T08:55:08;97377.97;;;8.43;83.26
22580;BME280;11456;47.030;15.396;2023-02-23T08:57:36;97373.88;;;8.39;84.19
22580;BME280;11456;47.030;15.396;2023-02-23T09:00:04;97372.16;;;8.48;84.18
22580;BME280;11456;47.030;15.396;2023-02-23T09:02:39;97377.25;;;8.78;82.25
22580;BME280;11456;47.030;15.396;2023-02-23T09:05:06;97383.78;;;8.75;81.99
22580;BME280;11456;47.030;15.396;2023-02-23T09:07:33;97386.56;;;8.83;80.77
22580;BME280;11456;47.030;15.396;2023-02-23T09:10:00;97380.78;;;8.78;80.94
22580;BME280;11456;47.030;15.396;2023-02-23T09:12:26;97383.94;;;8.64;82.30
22580;BME280;11456;47.030;15.396;2023-02-23T09:14:53;97387.00;;;8.89;81.63
22580;BME280;11456;47.030;15.396;2023-02-23T09:17:20;97379.72;;;8.99;79.74
22580;BME280;11456;47.030;15.396;2023-02-23T09:19:48;97379.00;;;9.24;79.12
22580;BME280;11456;47.030;15.396;2023-02-23T09:22:15;97386.28;;;9.14;78.80
22580;BME280;11456;47.030;15.396;2023-02-23T09:24:43;97388.03;;;9.05;80.86
22580;BME280;11456;47.030;15.396;2023-02-23T09:27:10;97387.75;;;8.71;81.78
22580;BME280;11456;47.030;15.396;2023-02-23T09:29:38;97394.75;;;8.45;83.55
22580;BME280;11456;47.030;15.396;2023-02-23T09:32:08;97396.44;;;8.46;84.78
22580;BME280;11456;47.030;15.396;2023-02-23T09:34:35;97390.22;;;8.45;84.12
22580;BME280;11456;47.030;15.396;2023-02-23T09:37:03;97388.56;;;8.44;84.70
22580;BME280;11456;47.030;15.396;2023-02-23T09:39:30;97387.13;;;8.50;84.17
22580;BME280;11456;47.030;15.396;2023-02-23T09:42:06;97399.56;;;8.51;84.30
22580;BME280;11456;47.030;15.396;2023-02-23T09:47:27;97394.19;;;8.51;84.19
22580;BME280;11456;47.030;15.396;2023-02-23T09:49:56;97397.28;;;8.47;84.29
22580;BME280;11456;47.030;15.396;2023-02-23T09:52:25;97392.78;;;8.47;83.97
22580;BME280;11456;47.030;15.396;2023-02-23T09:54:53;97406.38;;;8.36;83.95
22580;BME280;11456;47.030;15.396;2023-02-23T09:57:24;97395.31;;;8.49;84.46
22580;BME280;11456;47.030;15.396;2023-02-23T09:59:54;97395.53;;;8.74;83.40
22580;BME280;11456;47.030;15.396;2023-02-23T10:02:46;97399.72;;;8.87;82.67
22580;BME280;11456;47.030;15.396;2023-02-23T10:05:10;97389.38;;;9.19;81.24
22580;BME280;11456;47.030;15.396;2023-02-23T10:10:20;97393.97;;;9.09;81.45
22580;BME280;11456;47.030;15.396;2023-02-23T10:15:35;97391.66;;;9.14;80.94
22580;BME280;11456;47.030;15.396;2023-02-23T10:20:45;97382.91;;;9.12;81.19
22580;BME280;11456;47.030;15.396;2023-02-23T10:23:18;97385.19;;;9.52;80.05
22580;BME280;11456;47.030;15.396;2023-02-23T10:25:47;97392.28;;;9.71;79.45
22580;BME280;11456;47.030;15.396;2023-02-23T10:28:15;97391.56;;;10.04;77.75
22580;BME280;11456;47.030;15.396;2023-02-23T10:30:42;97390.50;;;9.97;76.38
22580;BME280;11456;47.030;15.396;2023-02-23T10:33:12;97388.88;;;10.04;77.19
22580;BME280;11456;47.030;15.396;2023-02-23T10:35:39;97385.50;;;10.20;75.92
22580;BME280;11456;47.030;15.396;2023-02-23T10:38:07;97386.38;;;9.85;77.34
22580;BME280;11456;47.030;15.396;2023-02-23T10:40:34;97382.38;;;10.32;75.83
22580;BME280;11456;47.030;15.396;2023-02-23T10:43:01;97375.50;;;10.56;76.16
22580;BME280;11456;47.030;15.396;2023-02-23T10:45:29;97368.41;;;10.55;74.89
22580;BME280;11456;47.030;15.396;2023-02-23T10:48:12;97377.16;;;10.57;74.76
22580;BME280;11456;47.030;15.396;2023-02-23T10:50:42;97361.34;;;10.54;72.80
22580;BME280;11456;47.030;15.396;2023-02-23T10:55:37;97371.19;;;11.05;72.37
22580;BME280;11456;47.030;15.396;2023-02-23T10:58:08;97359.25;;;11.07;70.94
22580;BME280;11456;47.030;15.396;2023-02-23T11:00:52;97362.50;;;11.19;70.22
22580;BME280;11456;47.030;15.396;2023-02-23T11:05:48;97361.44;;;11.62;68.13
22580;BME280;11456;47.030;15.396;2023-02-23T11:08:22;97352.38;;;11.87;66.59
22580;BME280;11456;47.030;15.396;2023-02-23T11:11:03;97354.28;;;11.37;69.22
22580;BME280;11456;47.030;15.396;2023-02-23T11:13:37;97348.66;;;11.80;69.66
22580;BME280;11456;47.030;15.396;2023-02-23T11:18:30;97338.53;;;11.98;66.95
22580;BME280;11456;47.030;15.396;2023-02-23T11:20:57;97347.91;;;11.46;70.67
22580;BME280;11456;47.030;15.396;2023-02-23T11:23:27;97339.47;;;11.33;70.96
22580;BME280;11456;47.030;15.396;2023-02-23T11:25:56;97328.78;;;12.22;69.44
22580;BME280;11456;47.030;15.396;2023-02-23T11:28:31;97321.69;;;11.88;67.15
22580;BME280;11456;47.030;15.396;2023-02-23T11:31:11;97327.41;;;12.26;66.83
22580;BME280;11456;47.030;15.396;2023-02-23T11:33:40;97315.09;;;13.56;62.29
22580;BME280;11456;47.030;15.396;2023-02-23T11:38:39;97307.47;;;12.35;68.35
22580;BME280;11456;47.030;15.396;2023-02-23T11:41:22;97307.84;;;12.16;65.42
22580;BME280;11456;47.030;15.396;2023-02-23T11:43:49;97317.63;;;12.00;66.28
22580;BME280;11456;47.030;15.396;2023-02-23T11:46:17;97310.19;;;12.11;67.18
22580;BME280;11456;47.030;15.396;2023-02-23T11:51:57;97313.59;;;11.80;68.00
22580;BME280;11456;47.030;15.396;2023-02-23T11:54:04;97305.81;;;11.69;68.91
22580;BME280;11456;47.030;15.396;2023-02-23T11:56:33;97316.81;;;12.08;68.31
22580;BME280;11456;47.030;15.396;2023-02-23T11:59:01;97302.47;;;11.75;67.47
22580;BME280;11456;47.030;15.396;2023-02-23T12:01:39;97310.72;;;12.14;65.96
22580;BME280;11456;47.030;15.396;2023-02-23T12:04:30;97302.06;;;11.38;70.43
22580;BME280;11456;47.030;15.396;2023-02-23T12:09:44;97306.19;;;11.82;69.58
22580;BME280;11456;47.030;15.396;2023-02-23T12:12:13;97302.78;;;11.64;70.31
22580;BME280;11456;47.030;15.396;2023-02-23T12:17:17;97298.47;;;11.21;71.04
22580;BME280;11456;47.030;15.396;2023-02-23T12:19:54;97298.66;;;11.19;70.60
22580;BME280;11456;47.030;15.396;2023-02-23T12:22:25;97292.31;;;11.45;70.97
22580;BME280;11456;47.030;15.396;2023-02-23T12:24:57;97285.56;;;11.57;69.35
22580;BME280;11456;47.030;15.396;2023-02-23T12:27:35;97288.59;;;11.38;69.55
22580;BME280;11456;47.030;15.396;2023-02-23T12:32:44;97285.22;;;11.44;70.62
22580;BME280;11456;47.030;15.396;2023-02-23T12:38:00;97278.09;;;11.26;70.11
22580;BME280;11456;47.030;15.396;2023-02-23T12:40:33;97278.03;;;10.94;70.50
22580;BME280;11456;47.030;15.396;2023-02-23T12:43:21;97278.63;;;11.30;70.86
22580;BME280;11456;47.030;15.396;2023-02-23T12:51:12;97272.75;;;11.43;70.38
22580;BME280;11456;47.030;15.396;2023-02-23T12:53:41;97266.34;;;11.52;69.58
22580;BME280;11456;47.030;15.396;2023-02-23T12:59:06;97272.38;;;11.46;69.70
22580;BME280;11456;47.030;15.396;2023-02-23T13:01:45;97267.00;;;11.30;71.20
22580;BME280;11456;47.030;15.396;2023-02-23T13:04:24;97263.97;;;11.41;69.92
22580;BME280;11456;47.030;15.396;2023-02-23T13:11:51;97265.88;;;11.81;68.92
22580;BME280;11456;47.030;15.396;2023-02-23T13:19:34;97261.78;;;11.36;71.46
22580;BME280;11456;47.030;15.396;2023-02-23T13:22:08;97262.94;;;11.17;71.67
22580;BME280;11456;47.030;15.396;2023-02-23T13:24:40;97258.88;;;11.05;72.27
22580;BME280;11456;47.030;15.396;2023-02-23T13:29:41;97256.16;;;11.05;72.95
22580;BME280;11456;47.030;15.396;2023-02-23T13:32:12;97259.91;;;11.29;70.78
22580;BME280;11456;47.030;15.396;2023-02-23T13:34:44;97264.44;;;11.12;71.78
22580;BME280;11456;47.030;15.396;2023-02-23T13:37:15;97255.56;;;10.77;73.95
22580;BME280;11456;47.030;15.396;2023-02-23T13:47:57;97260.91;;;11.27;71.96
22580;BME280;11456;47.030;15.396;2023-02-23T13:50:30;97268.31;;;11.17;71.61
22580;BME280;11456;47.030;15.396;2023-02-23T13:53:04;97270.72;;;11.45;71.22
22580;BME280;11456;47.030;15.396;2023-02-23T13:55:36;97273.56;;;11.19;72.03
22580;BME280;11456;47.030;15.396;2023-02-23T13:58:16;97265.66;;;11.42;70.56
22580;BME280;11456;47.030;15.396;2023-02-23T14:00:49;97271.06;;;11.42;70.86
22580;BME280;11456;47.030;15.396;2023-02-23T14:03:22;97275.13;;;12.02;67.54
22580;BME280;11456;47.030;15.396;2023-02-23T14:05:51;97260.63;;;11.39;70.55
22580;BME280;11456;47.030;15.396;2023-02-23T14:08:24;97270.88;;;11.35;70.11
22580;BME280;11456;47.030;15.396;2023-02-23T14:10:55;97279.03;;;11.01;71.02
22580;BME280;11456;47.030;15.396;2023-02-23T14:13:27;97272.63;;;10.86;72.25
22580;BME280;11456;47.030;15.396;2023-02-23T14:16:11;97274.72;;;11.16;69.45
22580;BME280;11456;47.030;15.396;2023-02-23T14:24:21;97273.03;;;11.07;71.41
22580;BME280;11456;47.030;15.396;2023-02-23T14:29:38;97261.28;;;11.33;69.89
22580;BME280;11456;47.030;15.396;2023-02-23T14:34:49;97262.53;;;10.88;71.46
22580;BME280;11456;47.030;15.396;2023-02-23T14:37:35;97268.59;;;10.90;72.11
22580;BME280;11456;47.030;15.396;2023-02-23T14:42:29;97259.72;;;11.22;70.60
22580;BME280;11456;47.030;15.396;2023-02-23T14:44:56;97257.53;;;11.17;70.60
22580;BME280;11456;47.030;15.396;2023-02-23T14:47:24;97264.25;;;11.05;70.50
22580;BME280;11456;47.030;15.396;2023-02-23T14:49:56;97260.59;;;11.31;69.90
22580;BME280;11456;47.030;15.396;2023-02-23T14:54:50;97256.22;;;11.30;69.74
22580;BME280;11456;47.030;15.396;2023-02-23T14:57:21;97257.50;;;11.01;70.86
22580;BME280;11456;47.030;15.396;2023-02-23T14:59:58;97258.19;;;11.03;70.67
22580;BME280;11456;47.030;15.396;2023-02-23T15:02:27;97258.50;;;10.92;71.80
22580;BME280;11456;47.030;15.396;2023-02-23T15:04:54;97263.56;;;11.03;71.76
22580;BME280;11456;47.030;15.396;2023-02-23T15:07:25;97257.53;;;11.17;70.86